createdAt,value
2019-03-25T00:00:08.748Z,78.10
2019-03-25T00:00:48.913Z,78.10
2019-03-25T00:01:25.299Z,78.30
2019-03-25T00:01:59.813Z,78.20
2019-03-25T00:02:36.235Z,78.40
2019-03-25T00:03:10.860Z,79.20
2019-03-25T00:03:45.505Z,78.50
2019-03-25T00:04:20.021Z,78.40
2019-03-25T00:04:54.598Z,78.40
2019-03-25T00:05:29.150Z,78.40
2019-03-25T00:06:04.333Z,78.40
2019-03-25T00:06:39.122Z,79.10
2019-03-25T00:07:13.887Z,78.50
2019-03-25T00:07:48.467Z,78.40
2019-03-25T00:08:23.212Z,78.40
2019-03-25T00:09:04.779Z,78.50
2019-03-25T00:09:33.924Z,78.50
2019-03-25T00:10:08.682Z,78.30
2019-03-25T00:10:43.184Z,78.40
2019-03-25T00:11:17.810Z,78.50
2019-03-25T00:11:52.337Z,78.60
2019-03-25T00:12:26.908Z,78.50
2019-03-25T00:13:01.418Z,78.80
2019-03-25T00:13:35.942Z,78.40
2019-03-25T00:14:10.521Z,78.50
2019-03-25T00:14:45.127Z,78.50
2019-03-25T00:15:19.638Z,78.40
2019-03-25T00:15:56.405Z,78.40
2019-03-25T00:16:30.520Z,78.20
2019-03-25T00:17:05.128Z,78.20
2019-03-25T00:17:39.641Z,78.20
2019-03-25T00:18:14.226Z,78.30
2019-03-25T00:18:48.780Z,78.30
2019-03-25T00:19:23.350Z,78.20
2019-03-25T00:19:57.860Z,78.50
2019-03-25T00:20:32.361Z,78.70
2019-03-25T00:21:06.878Z,78.90
2019-03-25T00:21:41.385Z,78.90
2019-03-25T00:22:15.894Z,78.90
2019-03-25T00:22:50.462Z,78.80
2019-03-25T00:23:25.032Z,78.80
2019-03-25T00:23:59.644Z,79.00
2019-03-25T00:24:38.598Z,78.70
2019-03-25T00:25:10.368Z,78.60
2019-03-25T00:25:44.865Z,78.80
2019-03-25T00:26:19.710Z,78.90
2019-03-25T00:26:54.243Z,79.00
2019-03-25T00:27:28.761Z,79.20
2019-03-25T00:28:03.348Z,79.10
2019-03-25T00:28:37.965Z,79.00
2019-03-25T00:29:12.548Z,78.90
2019-03-25T00:29:47.142Z,78.80
2019-03-25T00:30:21.727Z,78.80
2019-03-25T00:30:56.236Z,78.80
2019-03-25T00:31:30.832Z,79.00
2019-03-25T00:32:05.332Z,78.90
2019-03-25T00:32:39.839Z,78.90
2019-03-25T00:33:14.353Z,78.80
2019-03-25T00:33:48.866Z,78.70
2019-03-25T00:34:23.502Z,78.60
2019-03-25T00:34:58.008Z,78.50
2019-03-25T00:35:32.517Z,78.50
2019-03-25T00:36:07.046Z,78.30
2019-03-25T00:36:41.614Z,78.40
2019-03-25T00:37:16.132Z,78.30
2019-03-25T00:37:51.022Z,78.40
2019-03-25T00:38:25.550Z,78.50
2019-03-25T00:39:00.442Z,78.50
2019-03-25T00:39:34.953Z,78.60
2019-03-25T00:40:09.648Z,78.40
2019-03-25T00:40:44.161Z,78.50
2019-03-25T00:41:18.664Z,78.50
2019-03-25T00:41:53.189Z,78.50
2019-03-25T00:42:27.705Z,78.50
2019-03-25T00:43:02.264Z,78.60
2019-03-25T00:43:37.038Z,78.70
2019-03-25T00:44:11.556Z,78.70
2019-03-25T00:44:46.067Z,78.80
2019-03-25T00:45:20.576Z,79.00
2019-03-25T00:45:55.136Z,79.00
2019-03-25T00:46:29.671Z,79.00
2019-03-25T00:47:04.231Z,79.10
2019-03-25T00:47:38.770Z,79.50
2019-03-25T00:48:13.324Z,79.20
2019-03-25T00:48:47.833Z,79.10
2019-03-25T00:49:22.360Z,79.20
2019-03-25T00:49:56.852Z,79.30
2019-03-25T00:50:31.365Z,79.20
2019-03-25T00:51:05.869Z,79.20
2019-03-25T00:51:40.412Z,79.20
2019-03-25T00:52:14.909Z,79.20
2019-03-25T00:52:49.434Z,79.30
2019-03-25T00:53:23.932Z,79.40
2019-03-25T00:53:58.449Z,79.20
2019-03-25T00:54:32.957Z,79.20
2019-03-25T00:55:07.899Z,79.20
2019-03-25T00:55:42.409Z,79.10
2019-03-25T00:56:16.910Z,79.00
2019-03-25T00:56:51.674Z,79.10
2019-03-25T00:57:26.211Z,79.10
2019-03-25T00:58:00.719Z,79.00
2019-03-25T00:58:35.408Z,79.10
2019-03-25T00:59:10.001Z,79.00
2019-03-25T00:59:44.573Z,79.10
2019-03-25T01:00:19.464Z,79.20
2019-03-25T01:00:53.969Z,79.20
2019-03-25T01:01:28.510Z,79.20
2019-03-25T01:02:03.107Z,79.00
2019-03-25T01:02:37.689Z,79.00
2019-03-25T01:03:12.297Z,79.00
2019-03-25T01:03:46.813Z,79.00
2019-03-25T01:04:21.356Z,79.00
2019-03-25T01:04:55.863Z,78.90
2019-03-25T01:05:30.390Z,79.10
2019-03-25T01:06:05.067Z,78.90
2019-03-25T01:06:39.572Z,78.90
2019-03-25T01:07:14.159Z,78.90
2019-03-25T01:07:48.798Z,78.90
2019-03-25T01:08:23.308Z,78.80
2019-03-25T01:08:57.849Z,78.80
2019-03-25T01:09:32.351Z,78.90
2019-03-25T01:10:10.080Z,78.70
2019-03-25T01:10:44.591Z,78.60
2019-03-25T01:11:19.164Z,78.40
2019-03-25T01:11:53.684Z,78.50
2019-03-25T01:12:28.260Z,78.50
2019-03-25T01:13:02.773Z,78.50
2019-03-25T01:13:37.354Z,78.70
2019-03-25T01:14:11.938Z,78.80
2019-03-25T01:14:46.490Z,78.80
2019-03-25T01:15:20.993Z,78.70
2019-03-25T01:15:55.512Z,78.80
2019-03-25T01:16:30.018Z,78.80
2019-03-25T01:17:04.542Z,78.70
2019-03-25T01:17:39.122Z,78.80
2019-03-25T01:18:17.070Z,78.90
2019-03-25T01:18:49.894Z,79.50
2019-03-25T01:19:24.462Z,78.70
2019-03-25T01:19:59.021Z,78.70
2019-03-25T01:20:33.639Z,78.70
2019-03-25T01:21:08.188Z,78.70
2019-03-25T01:21:42.714Z,78.50
2019-03-25T01:22:17.226Z,78.60
2019-03-25T01:22:51.852Z,78.50
2019-03-25T01:23:26.354Z,78.40
2019-03-25T01:24:00.916Z,78.40
2019-03-25T01:24:35.416Z,78.50
2019-03-25T01:25:10.062Z,78.50
2019-03-25T01:25:44.578Z,78.50
2019-03-25T01:26:19.421Z,78.50
2019-03-25T01:26:53.941Z,78.50
2019-03-25T01:27:28.592Z,78.50
2019-03-25T01:28:03.173Z,78.70
2019-03-25T01:28:37.682Z,78.80
2019-03-25T01:29:12.255Z,78.70
2019-03-25T01:29:46.835Z,78.50
2019-03-25T01:30:21.347Z,78.60
2019-03-25T01:30:55.857Z,78.50
2019-03-25T01:31:30.397Z,78.70
2019-03-25T01:32:05.068Z,78.70
2019-03-25T01:32:39.631Z,78.60
2019-03-25T01:33:14.146Z,78.60
2019-03-25T01:33:48.667Z,78.60
2019-03-25T01:34:23.244Z,78.40
2019-03-25T01:34:57.752Z,78.50
2019-03-25T01:35:32.335Z,78.40
2019-03-25T01:36:06.848Z,78.40
2019-03-25T01:36:41.357Z,78.50
2019-03-25T01:37:15.868Z,78.60
2019-03-25T01:37:50.403Z,78.60
2019-03-25T01:38:24.993Z,78.50
2019-03-25T01:38:59.855Z,78.50
2019-03-25T01:39:34.365Z,78.80
2019-03-25T01:40:09.110Z,78.40
2019-03-25T01:40:43.625Z,78.50
2019-03-25T01:41:18.409Z,78.50
2019-03-25T01:41:52.985Z,78.50
2019-03-25T01:42:27.489Z,78.70
2019-03-25T01:43:02.026Z,78.50
2019-03-25T01:43:36.701Z,78.50
2019-03-25T01:44:11.208Z,79.20
2019-03-25T01:44:45.796Z,78.80
2019-03-25T01:45:20.304Z,78.70
2019-03-25T01:45:54.916Z,78.70
2019-03-25T01:46:29.424Z,78.70
2019-03-25T01:47:03.938Z,78.30
2019-03-25T01:47:38.546Z,78.90
2019-03-25T01:48:13.054Z,78.90
2019-03-25T01:48:47.561Z,78.90
2019-03-25T01:49:22.119Z,78.90
2019-03-25T01:49:56.795Z,78.80
2019-03-25T01:50:31.297Z,78.80
2019-03-25T01:51:05.910Z,78.80
2019-03-25T01:51:40.489Z,78.70
2019-03-25T01:52:15.004Z,78.80
2019-03-25T01:52:49.536Z,78.60
2019-03-25T01:53:24.040Z,78.60
2019-03-25T01:53:58.650Z,78.70
2019-03-25T01:54:33.157Z,79.50
2019-03-25T01:55:13.493Z,78.90
2019-03-25T01:55:43.959Z,78.90
2019-03-25T01:56:18.461Z,78.80
2019-03-25T01:56:52.965Z,78.80
2019-03-25T01:57:27.483Z,78.80
2019-03-25T01:58:01.980Z,78.80
2019-03-25T01:58:36.472Z,78.50
2019-03-25T01:59:10.988Z,78.30
2019-03-25T01:59:45.648Z,78.30
2019-03-25T02:00:20.154Z,78.40
2019-03-25T02:00:54.856Z,78.50
2019-03-25T02:01:30.213Z,78.60
2019-03-25T02:02:04.718Z,78.60
2019-03-25T02:02:39.217Z,78.60
2019-03-25T02:03:13.726Z,78.80
2019-03-25T02:03:48.562Z,78.90
2019-03-25T02:04:23.071Z,78.80
2019-03-25T02:04:57.664Z,78.80
2019-03-25T02:05:32.229Z,78.80
2019-03-25T02:06:06.740Z,79.00
2019-03-25T02:06:41.273Z,79.00
2019-03-25T02:07:15.853Z,79.10
2019-03-25T02:07:50.399Z,79.00
2019-03-25T02:08:24.973Z,79.00
2019-03-25T02:08:59.558Z,78.90
2019-03-25T02:09:34.092Z,79.00
2019-03-25T02:10:10.248Z,78.90
2019-03-25T02:10:44.819Z,79.60
2019-03-25T02:11:19.335Z,78.90
2019-03-25T02:11:53.856Z,78.90
2019-03-25T02:12:28.433Z,79.10
2019-03-25T02:13:02.937Z,79.10
2019-03-25T02:13:37.441Z,79.70
2019-03-25T02:14:11.944Z,78.90
2019-03-25T02:14:46.463Z,78.90
2019-03-25T02:15:21.029Z,78.90
2019-03-25T02:15:55.528Z,79.00
2019-03-25T02:16:30.043Z,79.00
2019-03-25T02:17:04.610Z,78.90
2019-03-25T02:17:39.160Z,78.90
2019-03-25T02:18:13.669Z,79.00
2019-03-25T02:18:48.255Z,79.10
2019-03-25T02:19:22.897Z,79.10
2019-03-25T02:19:57.408Z,79.20
2019-03-25T02:20:31.941Z,79.30
2019-03-25T02:21:06.530Z,79.40
2019-03-25T02:21:41.037Z,79.50
2019-03-25T02:22:15.549Z,79.50
2019-03-25T02:22:50.242Z,80.60
2019-03-25T02:23:25.194Z,80.70
2019-03-25T02:23:59.868Z,80.70
2019-03-25T02:24:34.402Z,80.70
2019-03-25T02:25:09.017Z,80.80
2019-03-25T02:25:43.524Z,80.90
2019-03-25T02:26:18.027Z,81.90
2019-03-25T02:26:52.524Z,81.30
2019-03-25T02:27:27.050Z,81.40
2019-03-25T02:28:01.694Z,81.50
2019-03-25T02:28:55.588Z,81.40
2019-03-25T02:29:30.140Z,81.50
2019-03-25T02:30:08.319Z,81.40
2019-03-25T02:30:42.853Z,81.50
2019-03-25T02:31:17.356Z,81.80
2019-03-25T02:31:51.849Z,81.90
2019-03-25T02:32:26.361Z,81.90
2019-03-25T02:33:00.877Z,81.90
2019-03-25T02:33:35.363Z,81.60
2019-03-25T02:34:09.882Z,81.40
2019-03-25T02:34:44.654Z,81.40
2019-03-25T02:35:19.234Z,81.40
2019-03-25T02:35:53.736Z,81.30
2019-03-25T02:36:28.240Z,81.20
2019-03-25T02:37:02.876Z,81.20
2019-03-25T02:37:37.602Z,81.30
2019-03-25T02:38:12.243Z,81.40
2019-03-25T02:38:46.955Z,81.20
2019-03-25T02:39:21.490Z,81.10
2019-03-25T02:39:56.146Z,81.20
2019-03-25T02:40:30.736Z,81.20
2019-03-25T02:41:05.295Z,81.30
2019-03-25T02:41:39.805Z,81.30
2019-03-25T02:42:14.464Z,81.40
2019-03-25T02:42:49.056Z,81.70
2019-03-25T02:43:23.626Z,81.70
2019-03-25T02:43:58.136Z,81.90
2019-03-25T02:44:32.700Z,81.90
2019-03-25T02:45:07.847Z,81.90
2019-03-25T02:45:42.441Z,81.90
2019-03-25T02:46:17.234Z,81.90
2019-03-25T02:46:51.805Z,82.00
2019-03-25T02:47:26.296Z,82.10
2019-03-25T02:48:00.802Z,82.20
2019-03-25T02:48:35.390Z,82.40
2019-03-25T02:49:09.997Z,82.40
2019-03-25T02:49:45.463Z,82.50
2019-03-25T02:50:20.147Z,82.40
2019-03-25T02:50:54.964Z,82.30
2019-03-25T02:51:29.481Z,82.30
2019-03-25T02:52:03.981Z,82.30
2019-03-25T02:52:38.473Z,82.50
2019-03-25T02:53:13.003Z,82.50
2019-03-25T02:53:47.586Z,82.60
2019-03-25T02:54:22.088Z,82.70
2019-03-25T02:54:56.650Z,82.60
2019-03-25T02:55:41.475Z,82.80
2019-03-25T02:56:07.467Z,82.80
2019-03-25T02:56:41.982Z,82.90
2019-03-25T02:57:16.555Z,83.00
2019-03-25T02:57:51.053Z,82.90
2019-03-25T02:58:25.558Z,82.80
2019-03-25T02:59:00.422Z,82.80
2019-03-25T02:59:34.921Z,82.60
2019-03-25T03:00:11.422Z,82.60
2019-03-25T03:00:45.980Z,82.60
2019-03-25T03:01:20.483Z,82.60
2019-03-25T03:01:55.064Z,82.70
2019-03-25T03:02:29.669Z,82.60
2019-03-25T03:03:05.222Z,82.50
2019-03-25T03:03:39.778Z,82.60
2019-03-25T03:04:14.296Z,82.70
2019-03-25T03:04:48.938Z,82.80
2019-03-25T03:05:23.502Z,82.90
2019-03-25T03:05:58.004Z,82.90
2019-03-25T03:06:32.539Z,83.10
2019-03-25T03:07:07.110Z,83.10
2019-03-25T03:07:41.603Z,83.00
2019-03-25T03:08:16.136Z,82.80
2019-03-25T03:08:50.653Z,82.80
2019-03-25T03:09:25.249Z,82.90
2019-03-25T03:09:59.807Z,83.10
2019-03-25T03:10:34.317Z,83.30
2019-03-25T03:11:09.237Z,83.40
2019-03-25T03:11:43.745Z,83.50
2019-03-25T03:12:18.598Z,84.20
2019-03-25T03:12:53.103Z,83.60
2019-03-25T03:13:27.709Z,83.70
2019-03-25T03:14:02.311Z,83.70
2019-03-25T03:14:36.878Z,83.80
2019-03-25T03:15:11.520Z,83.70
2019-03-25T03:15:46.013Z,83.70
2019-03-25T03:16:20.513Z,83.70
2019-03-25T03:16:55.026Z,83.60
2019-03-25T03:17:29.519Z,83.70
2019-03-25T03:18:04.378Z,83.70
2019-03-25T03:18:38.882Z,83.80
2019-03-25T03:19:13.454Z,83.90
2019-03-25T03:19:47.987Z,83.90
2019-03-25T03:20:22.562Z,83.90
2019-03-25T03:20:57.084Z,83.90
2019-03-25T03:21:31.586Z,83.90
2019-03-25T03:22:06.172Z,84.40
2019-03-25T03:22:40.757Z,83.90
2019-03-25T03:23:15.361Z,84.00
2019-03-25T03:23:49.884Z,84.30
2019-03-25T03:24:24.452Z,84.50
2019-03-25T03:24:59.012Z,84.50
2019-03-25T03:25:33.645Z,84.60
2019-03-25T03:26:08.330Z,84.90
2019-03-25T03:26:42.975Z,84.60
2019-03-25T03:27:17.477Z,84.40
2019-03-25T03:27:52.041Z,84.30
2019-03-25T03:28:26.600Z,84.80
2019-03-25T03:29:01.120Z,85.10
2019-03-25T03:29:35.737Z,85.40
2019-03-25T03:30:10.806Z,85.60
2019-03-25T03:30:45.706Z,85.60
2019-03-25T03:31:20.234Z,85.60
2019-03-25T03:31:54.826Z,85.70
2019-03-25T03:32:29.378Z,85.90
2019-03-25T03:33:04.981Z,86.00
2019-03-25T03:33:39.480Z,86.10
2019-03-25T03:34:13.975Z,86.10
2019-03-25T03:34:48.497Z,86.20
2019-03-25T03:35:23.077Z,86.20
2019-03-25T03:35:57.629Z,86.40
2019-03-25T03:36:32.131Z,86.50
2019-03-25T03:37:06.696Z,86.60
2019-03-25T03:37:41.538Z,86.40
2019-03-25T03:38:16.044Z,86.30
2019-03-25T03:38:50.608Z,86.20
2019-03-25T03:39:25.148Z,86.20
2019-03-25T03:39:59.697Z,86.00
2019-03-25T03:40:34.444Z,85.90
2019-03-25T03:41:09.062Z,85.80
2019-03-25T03:41:43.618Z,85.90
2019-03-25T03:42:18.192Z,85.80
2019-03-25T03:42:53.683Z,85.80
2019-03-25T03:43:28.237Z,85.80
2019-03-25T03:44:02.826Z,85.90
2019-03-25T03:44:37.392Z,85.90
2019-03-25T03:45:12.699Z,85.60
2019-03-25T03:45:47.276Z,85.60
2019-03-25T03:46:21.787Z,85.70
2019-03-25T03:46:56.285Z,85.60
2019-03-25T03:47:30.788Z,86.10
2019-03-25T03:48:05.373Z,85.70
2019-03-25T03:48:39.916Z,85.80
2019-03-25T03:49:14.546Z,85.90
2019-03-25T03:49:49.058Z,85.90
2019-03-25T03:50:25.373Z,86.00
2019-03-25T03:51:00.957Z,86.20
2019-03-25T03:51:35.463Z,86.10
2019-03-25T03:52:09.955Z,86.30
2019-03-25T03:52:45.001Z,86.40
2019-03-25T03:53:19.642Z,86.50
2019-03-25T03:53:54.217Z,86.40
2019-03-25T03:54:28.779Z,86.20
2019-03-25T03:55:04.186Z,86.20
2019-03-25T03:55:39.852Z,86.20
2019-03-25T03:56:14.786Z,86.30
2019-03-25T03:56:51.032Z,86.30
2019-03-25T03:57:25.936Z,86.30
2019-03-25T03:58:00.514Z,86.50
2019-03-25T03:58:35.091Z,86.70
2019-03-25T03:59:09.692Z,86.80
2019-03-25T03:59:44.451Z,86.80
2019-03-25T04:00:28.169Z,86.90
2019-03-25T04:01:02.733Z,87.00
2019-03-25T04:01:37.249Z,86.90
2019-03-25T04:02:12.629Z,86.80
2019-03-25T04:02:47.217Z,86.80
2019-03-25T04:03:21.709Z,86.70
2019-03-25T04:03:56.211Z,86.70
2019-03-25T04:04:30.720Z,86.70
2019-03-25T04:05:05.225Z,87.10
2019-03-25T04:05:39.797Z,86.60
2019-03-25T04:06:14.949Z,86.60
2019-03-25T04:06:49.469Z,86.70
2019-03-25T04:07:23.967Z,86.50
2019-03-25T04:07:58.476Z,86.60
2019-03-25T04:08:33.027Z,86.60
2019-03-25T04:09:07.600Z,86.60
2019-03-25T04:09:42.602Z,86.50
2019-03-25T04:10:17.110Z,86.50
2019-03-25T04:10:51.700Z,86.60
2019-03-25T04:11:26.208Z,86.60
2019-03-25T04:12:00.776Z,86.60
2019-03-25T04:12:35.345Z,86.40
2019-03-25T04:13:09.847Z,86.40
2019-03-25T04:13:44.613Z,86.40
2019-03-25T04:14:19.131Z,86.40
2019-03-25T04:14:53.687Z,86.10
2019-03-25T04:15:30.254Z,86.70
2019-03-25T04:16:04.755Z,87.50
2019-03-25T04:16:39.258Z,87.00
2019-03-25T04:17:13.772Z,87.00
2019-03-25T04:17:48.313Z,86.90
2019-03-25T04:18:22.816Z,86.90
2019-03-25T04:18:57.316Z,86.80
2019-03-25T04:19:31.855Z,86.80
2019-03-25T04:20:07.922Z,86.80
2019-03-25T04:20:42.492Z,86.90
2019-03-25T04:21:17.004Z,87.00
2019-03-25T04:21:51.599Z,87.10
2019-03-25T04:22:26.173Z,87.30
2019-03-25T04:23:00.732Z,87.20
2019-03-25T04:23:35.309Z,87.10
2019-03-25T04:24:09.889Z,87.10
2019-03-25T04:24:44.471Z,87.00
2019-03-25T04:25:19.268Z,86.80
2019-03-25T04:25:53.839Z,86.70
2019-03-25T04:26:29.561Z,86.70
2019-03-25T04:27:04.980Z,86.70
2019-03-25T04:27:39.591Z,86.80
2019-03-25T04:28:14.158Z,86.80
2019-03-25T04:28:48.834Z,86.70
2019-03-25T04:29:23.461Z,86.60
2019-03-25T04:29:58.066Z,86.60
2019-03-25T04:30:32.626Z,86.70
2019-03-25T04:31:07.164Z,86.70
2019-03-25T04:31:41.678Z,86.60
2019-03-25T04:32:16.255Z,87.00
2019-03-25T04:32:50.765Z,86.70
2019-03-25T04:33:25.325Z,86.80
2019-03-25T04:33:59.836Z,86.80
2019-03-25T04:34:34.449Z,86.80
2019-03-25T04:35:09.222Z,86.80
2019-03-25T04:35:43.724Z,86.80
2019-03-25T04:36:18.226Z,86.70
2019-03-25T04:36:53.042Z,86.70
2019-03-25T04:37:27.620Z,86.80
2019-03-25T04:38:02.456Z,86.70
2019-03-25T04:38:37.051Z,86.80
2019-03-25T04:39:11.598Z,86.70
2019-03-25T04:39:46.092Z,86.60
2019-03-25T04:40:20.611Z,86.50
2019-03-25T04:40:55.215Z,86.60
2019-03-25T04:41:29.735Z,86.70
2019-03-25T04:42:04.303Z,86.70
2019-03-25T04:42:38.813Z,86.70
2019-03-25T04:43:13.398Z,87.00
2019-03-25T04:43:48.082Z,87.00
2019-03-25T04:44:22.685Z,87.00
2019-03-25T04:44:57.201Z,87.00
2019-03-25T04:45:31.774Z,86.80
2019-03-25T04:46:06.350Z,86.70
2019-03-25T04:46:40.875Z,86.90
2019-03-25T04:47:15.519Z,86.80
2019-03-25T04:47:50.032Z,86.70
2019-03-25T04:48:24.806Z,86.80
2019-03-25T04:48:59.300Z,86.70
2019-03-25T04:49:33.808Z,86.90
2019-03-25T04:50:08.365Z,86.90
2019-03-25T04:50:42.949Z,86.90
2019-03-25T04:51:17.813Z,87.00
2019-03-25T04:51:52.310Z,87.30
2019-03-25T04:52:26.853Z,87.50
2019-03-25T04:53:01.362Z,87.70
2019-03-25T04:53:36.265Z,87.70
2019-03-25T04:54:10.780Z,87.80
2019-03-25T04:54:45.355Z,87.80
2019-03-25T04:55:19.931Z,87.80
2019-03-25T04:55:54.448Z,88.40
2019-03-25T04:56:39.121Z,88.50
2019-03-25T04:57:05.213Z,87.80
2019-03-25T04:57:39.714Z,87.90
2019-03-25T04:58:14.349Z,88.00
2019-03-25T04:58:48.841Z,88.10
2019-03-25T04:59:23.348Z,88.20
2019-03-25T04:59:57.856Z,88.30
2019-03-25T05:00:34.466Z,88.90
2019-03-25T05:01:09.045Z,88.20
2019-03-25T05:01:43.624Z,88.10
2019-03-25T05:02:18.121Z,88.10
2019-03-25T05:02:52.621Z,88.10
2019-03-25T05:03:27.168Z,88.10
2019-03-25T05:04:01.717Z,88.10
2019-03-25T05:04:36.237Z,88.10
2019-03-25T05:05:10.905Z,88.00
2019-03-25T05:05:45.876Z,88.00
2019-03-25T05:06:20.755Z,88.10
2019-03-25T05:06:55.344Z,88.40
2019-03-25T05:07:30.552Z,88.30
2019-03-25T05:08:05.160Z,88.40
2019-03-25T05:08:39.655Z,88.50
2019-03-25T05:09:14.193Z,89.20
2019-03-25T05:09:48.703Z,88.60
2019-03-25T05:10:23.293Z,88.50
2019-03-25T05:10:57.797Z,88.50
2019-03-25T05:11:32.310Z,88.40
2019-03-25T05:12:07.133Z,88.50
2019-03-25T05:12:41.732Z,88.40
2019-03-25T05:13:16.261Z,88.60
2019-03-25T05:13:50.759Z,88.70
2019-03-25T05:14:25.256Z,88.60
2019-03-25T05:14:59.922Z,88.60
2019-03-25T05:15:34.424Z,88.70
2019-03-25T05:16:08.931Z,88.80
2019-03-25T05:16:43.515Z,88.90
2019-03-25T05:17:18.019Z,89.00
2019-03-25T05:17:52.545Z,89.00
2019-03-25T05:18:27.057Z,89.10
2019-03-25T05:19:01.658Z,89.40
2019-03-25T05:19:36.156Z,89.40
2019-03-25T05:20:10.917Z,89.50
2019-03-25T05:20:45.436Z,89.60
2019-03-25T05:21:19.948Z,89.70
2019-03-25T05:21:54.505Z,89.60
2019-03-25T05:22:29.028Z,89.60
2019-03-25T05:23:03.617Z,89.50
2019-03-25T05:23:38.210Z,89.60
2019-03-25T05:24:12.798Z,89.70
2019-03-25T05:24:47.372Z,89.80
2019-03-25T05:25:21.961Z,89.90
2019-03-25T05:25:56.493Z,89.70
2019-03-25T05:26:31.001Z,89.70
2019-03-25T05:27:05.573Z,89.80
2019-03-25T05:27:40.073Z,89.80
2019-03-25T05:28:14.591Z,89.80
2019-03-25T05:28:49.099Z,89.80
2019-03-25T05:29:23.670Z,89.90
2019-03-25T05:29:58.165Z,89.70
2019-03-25T05:30:32.704Z,89.90
2019-03-25T05:31:07.201Z,90.00
2019-03-25T05:31:41.731Z,90.00
2019-03-25T05:32:16.242Z,90.00
2019-03-25T05:32:50.743Z,90.00
2019-03-25T05:33:25.265Z,89.90
2019-03-25T05:33:59.903Z,90.00
2019-03-25T05:34:34.416Z,90.00
2019-03-25T05:35:09.049Z,90.00
2019-03-25T05:35:47.466Z,90.00
2019-03-25T05:36:21.994Z,90.00
2019-03-25T05:36:56.489Z,90.00
2019-03-25T05:37:30.998Z,90.10
2019-03-25T05:38:05.576Z,90.10
2019-03-25T05:38:40.147Z,90.10
2019-03-25T05:39:14.738Z,90.10
2019-03-25T05:39:49.342Z,90.00
2019-03-25T05:40:23.934Z,89.80
2019-03-25T05:40:58.445Z,90.00
2019-03-25T05:41:33.008Z,89.90
2019-03-25T05:42:07.555Z,89.90
2019-03-25T05:42:42.060Z,90.00
2019-03-25T05:43:16.552Z,89.70
2019-03-25T05:44:10.425Z,89.50
2019-03-25T05:44:44.949Z,89.70
2019-03-25T05:45:19.470Z,90.00
2019-03-25T05:45:53.963Z,90.00
2019-03-25T05:46:28.478Z,89.90
2019-03-25T05:47:03.002Z,89.70
2019-03-25T05:47:37.620Z,89.70
2019-03-25T05:48:12.217Z,89.60
2019-03-25T05:48:46.825Z,89.90
2019-03-25T05:49:21.343Z,90.00
2019-03-25T05:49:55.945Z,89.90
2019-03-25T05:50:31.410Z,90.20
2019-03-25T05:51:05.936Z,89.80
2019-03-25T05:51:40.645Z,89.60
2019-03-25T05:52:15.228Z,89.50
2019-03-25T05:52:49.769Z,89.20
2019-03-25T05:53:24.348Z,90.00
2019-03-25T05:53:58.917Z,89.20
2019-03-25T05:54:33.429Z,89.10
2019-03-25T05:55:08.206Z,89.10
2019-03-25T05:55:42.777Z,89.00
2019-03-25T05:56:17.375Z,88.60
2019-03-25T05:57:02.045Z,88.50
2019-03-25T05:57:28.086Z,88.50
2019-03-25T05:58:02.609Z,88.70
2019-03-25T05:58:37.381Z,88.00
2019-03-25T05:59:11.918Z,88.10
2019-03-25T05:59:46.442Z,88.30
2019-03-25T06:00:22.681Z,87.90
2019-03-25T06:00:58.628Z,88.00
2019-03-25T06:01:33.205Z,88.10
2019-03-25T06:02:07.715Z,88.30
2019-03-25T06:02:42.240Z,88.40
2019-03-25T06:03:16.831Z,89.00
2019-03-25T06:03:51.321Z,88.30
2019-03-25T06:04:25.825Z,88.10
2019-03-25T06:05:00.360Z,88.00
2019-03-25T06:05:34.969Z,87.80
2019-03-25T06:06:09.557Z,87.70
2019-03-25T06:06:44.095Z,87.60
2019-03-25T06:07:18.600Z,87.90
2019-03-25T06:07:53.180Z,87.00
2019-03-25T06:08:27.722Z,87.50
2019-03-25T06:09:02.302Z,86.70
2019-03-25T06:09:36.812Z,86.80
2019-03-25T06:10:12.260Z,86.90
2019-03-25T06:10:46.803Z,86.70
2019-03-25T06:11:21.426Z,86.80
2019-03-25T06:11:56.104Z,86.60
2019-03-25T06:12:30.629Z,86.30
2019-03-25T06:13:05.446Z,86.60
2019-03-25T06:13:39.957Z,86.10
2019-03-25T06:14:14.591Z,86.30
2019-03-25T06:14:49.181Z,86.20
2019-03-25T06:15:23.985Z,86.30
2019-03-25T06:15:58.746Z,86.60
2019-03-25T06:16:33.238Z,86.70
2019-03-25T06:17:07.812Z,86.60
2019-03-25T06:17:42.303Z,86.20
2019-03-25T06:18:16.809Z,85.90
2019-03-25T06:18:51.389Z,85.80
2019-03-25T06:19:25.893Z,85.80
2019-03-25T06:20:00.402Z,85.70
2019-03-25T06:20:34.926Z,85.40
2019-03-25T06:21:09.484Z,85.40
2019-03-25T06:21:44.026Z,85.60
2019-03-25T06:22:18.525Z,85.60
2019-03-25T06:22:53.293Z,85.60
2019-03-25T06:23:28.057Z,85.40
2019-03-25T06:24:02.629Z,85.00
2019-03-25T06:24:37.129Z,84.70
2019-03-25T06:25:12.041Z,84.80
2019-03-25T06:25:46.546Z,84.70
2019-03-25T06:26:21.038Z,84.30
2019-03-25T06:26:55.572Z,84.40
2019-03-25T06:27:30.140Z,84.40
2019-03-25T06:28:05.866Z,84.20
2019-03-25T06:28:40.473Z,84.20
2019-03-25T06:29:14.969Z,84.00
2019-03-25T06:29:49.479Z,83.70
2019-03-25T06:30:26.085Z,83.30
2019-03-25T06:31:00.656Z,83.70
2019-03-25T06:31:35.216Z,83.10
2019-03-25T06:32:10.209Z,83.10
2019-03-25T06:32:45.040Z,82.00
2019-03-25T06:33:19.639Z,81.80
2019-03-25T06:33:54.177Z,81.30
2019-03-25T06:34:28.759Z,80.60
2019-03-25T06:35:03.845Z,80.40
2019-03-25T06:35:38.430Z,79.90
2019-03-25T06:36:12.986Z,80.10
2019-03-25T06:36:47.490Z,80.10
2019-03-25T06:37:22.089Z,80.40
2019-03-25T06:37:56.599Z,80.50
2019-03-25T06:38:31.141Z,80.40
2019-03-25T06:39:06.825Z,81.20
2019-03-25T06:39:41.326Z,80.20
2019-03-25T06:40:15.897Z,80.00
2019-03-25T06:40:50.428Z,80.20
2019-03-25T06:41:24.940Z,80.10
2019-03-25T06:41:59.506Z,79.90
2019-03-25T06:42:34.021Z,79.90
2019-03-25T06:43:08.519Z,79.70
2019-03-25T06:43:43.084Z,79.60
2019-03-25T06:44:18.220Z,79.50
2019-03-25T06:44:52.789Z,79.30
2019-03-25T06:45:27.291Z,79.20
2019-03-25T06:46:01.781Z,79.10
2019-03-25T06:46:36.304Z,79.30
2019-03-25T06:47:10.884Z,79.30
2019-03-25T06:47:45.712Z,79.00
2019-03-25T06:48:20.220Z,78.30
2019-03-25T06:48:54.712Z,78.10
2019-03-25T06:49:29.787Z,77.90
2019-03-25T06:50:06.730Z,77.80
2019-03-25T06:50:41.317Z,77.90
2019-03-25T06:51:16.093Z,77.90
2019-03-25T06:51:50.706Z,77.80
2019-03-25T06:52:25.302Z,78.10
2019-03-25T06:52:59.873Z,78.20
2019-03-25T06:53:34.384Z,78.00
2019-03-25T06:54:08.887Z,78.20
2019-03-25T06:54:43.395Z,77.70
2019-03-25T06:55:18.048Z,77.50
2019-03-25T06:55:52.543Z,77.60
2019-03-25T06:56:27.050Z,77.50
2019-03-25T06:57:01.551Z,77.50
2019-03-25T06:57:38.495Z,77.60
2019-03-25T06:58:12.277Z,77.60
2019-03-25T06:58:46.842Z,77.30
2019-03-25T06:59:21.354Z,77.20
2019-03-25T06:59:57.413Z,76.90
2019-03-25T07:00:32.064Z,76.90
2019-03-25T07:01:06.583Z,76.80
2019-03-25T07:01:41.150Z,76.80
2019-03-25T07:02:15.712Z,76.80
2019-03-25T07:02:50.321Z,77.00
2019-03-25T07:03:29.851Z,76.90
2019-03-25T07:04:04.280Z,76.90
2019-03-25T07:04:38.797Z,76.90
2019-03-25T07:05:13.850Z,77.10
2019-03-25T07:05:48.500Z,77.30
2019-03-25T07:06:23.012Z,77.30
2019-03-25T07:06:57.628Z,77.20
2019-03-25T07:07:32.155Z,76.90
2019-03-25T07:08:06.754Z,76.80
2019-03-25T07:08:41.257Z,76.80
2019-03-25T07:09:15.838Z,75.90
2019-03-25T07:09:50.407Z,76.40
2019-03-25T07:10:33.048Z,76.00
2019-03-25T07:11:07.709Z,75.70
2019-03-25T07:11:42.404Z,75.60
2019-03-25T07:12:17.157Z,75.60
2019-03-25T07:12:51.648Z,75.30
2019-03-25T07:13:26.892Z,75.00
2019-03-25T07:14:01.380Z,74.60
2019-03-25T07:14:36.833Z,74.40
2019-03-25T07:15:11.579Z,74.00
2019-03-25T07:15:46.101Z,73.80
2019-03-25T07:16:20.595Z,73.80
2019-03-25T07:16:55.113Z,73.60
2019-03-25T07:17:29.641Z,73.40
2019-03-25T07:18:04.753Z,73.40
2019-03-25T07:18:39.330Z,73.30
2019-03-25T07:19:13.837Z,72.70
2019-03-25T07:19:48.348Z,72.60
2019-03-25T07:20:22.883Z,72.70
2019-03-25T07:20:57.397Z,72.70
2019-03-25T07:21:31.902Z,72.70
2019-03-25T07:22:06.417Z,71.30
2019-03-25T07:22:40.929Z,70.90
2019-03-25T07:23:15.441Z,70.40
2019-03-25T07:23:51.002Z,70.60
2019-03-25T07:24:25.584Z,70.50
2019-03-25T07:25:00.153Z,70.40
2019-03-25T07:25:34.970Z,70.60
2019-03-25T07:26:09.809Z,70.70
2019-03-25T07:26:44.312Z,70.50
2019-03-25T07:27:19.809Z,70.40